Airfield :
LOGIN :

Register | Disclaimer

   EN    FR    IT 

 










Legend :    VFR   Marginal VFR   IFR   Intensive IFR   Very Intensive IFR
Visi :
Ceiling :
>= 8 km
>= 3000ft
5 to 8 km
1000 to 3000 ft
1500m to 5 km
500 to 1000 ft
800 to 1500m
200 to 500 ft
< 800m
< 200 ft
Symbols :   Thunderstorms  Fog  Heavy snow  Heavy precipitations  Wind > 20 kt
SIGMETs :     Misc.  Thunderstorms  Icing  Turbulence  Mountain Waves  Volcanic Ashes







- Airport Elevation : 135 ft
- IATA code : EDI
- Download approach charts


EGPH - Edinburgh

CURRENT METAR :
  • 241420Z 27019G29KT 9999 FEW027 10/03 Q1020

EXPIRED METARs :
  • 241350Z 27019G32KT 240V310 9999 FEW009 SCT025 09/04 Q1021
  • 241320Z 26016G27KT 9999 BKN027 10/04 Q1021
  • 241250Z 26015G27KT 9999 SCT021TCU 10/06 Q1021
  • 241220Z 26020KT 9999 7000N -RA BKN022 10/05 Q1021
  • 241150Z 25018KT 9999 SCT017 09/05 Q1021

TAF TAF EGPH
Valid from the 24 at 12:00 until the 25 at 12:00 UTC


241103Z 2412/2512 25020KT 9999 SCT020
TEMPO 2412/2418 27025G38KT 7000 SHRA BKN014
BECMG 2416/2418 29015KT
TEMPO 2418/2503 28020G30KT
PROB30
TEMPO 2418/2422 8000 -SHRA
ATIS : +44 131 339 2823
No reported NOTAMs for that airfield.
1 SIGMET reported for the Scottish FIR (EGPX) :
 
Severe turbulence
EGPX SIGMET 01 VALID 241400/241800 EGRR
EGPX SCOTTISH FIR SEV TURB FCST WI N6100 W01000 - N6100 W00452 - N5851 W00049 - N5704 W00457 - N5904 W01000 - N6100 W01000 SFC/FL060 MOV SE 25KT NC=



MET'MAP, your aeronautical weather chart ! - Copyright ORBIFLY December 2007 - Disclaimer

ORBIFLY MET'MAP TEAM :

Programming & Development : Alexandra Zaïnal
Concept & Development : Baudouin d'Aumeries
Co-Development & Prog : Marc-Olivier Méhu
Technical & hardware support : Manuel Goepfert

Contact : metmap@orbifly.com




SOURCES & CREDITS :

   NOAA